Terminal Aerodrome Forecast
Issued by NWS

Home | Current Version | Previous Version | Text Only | Print | Product List | Glossary On
Versions: 1 2 3 4 5 6 7 8 9 10 11 12 13 14 15 16 17
328
FTUS44 KCRP 162016 AAA
TAFLRD
TAF AMD
KLRD 162016Z 1620/1718 34004KT P6SM SCT030
      TEMPO 1620/1621 BKN030
     FM171000 03005KT P6SM VCSH BKN015
     FM171700 07007KT P6SM VCTS BKN022CB=

USA.gov is the U.S. government's official web portal to all federal, state and local government web resources and services.